createdAt,value
2018-04-16T00:00:38.434Z,13.44
2018-04-16T00:03:05.921Z,13.51
2018-04-16T00:05:33.416Z,13.49
2018-04-16T00:08:00.976Z,13.45
2018-04-16T00:10:28.490Z,13.40
2018-04-16T00:12:55.992Z,13.37
2018-04-16T00:15:23.493Z,13.39
2018-04-16T00:17:50.991Z,13.44
2018-04-16T00:20:18.535Z,13.40
2018-04-16T00:22:46.036Z,13.43
2018-04-16T00:25:13.498Z,13.37
2018-04-16T00:27:40.976Z,13.37
2018-04-16T00:30:08.468Z,13.31
2018-04-16T00:32:41.488Z,13.34
2018-04-16T00:35:14.667Z,13.22
2018-04-16T00:37:47.889Z,13.17
2018-04-16T00:40:21.046Z,13.08
2018-04-16T00:42:54.215Z,13.13
2018-04-16T00:45:27.300Z,13.04
2018-04-16T00:48:00.507Z,12.97
2018-04-16T00:50:33.711Z,12.96
2018-04-16T00:53:06.842Z,12.98
2018-04-16T00:55:39.936Z,12.96
2018-04-16T00:58:13.152Z,13.00
2018-04-16T01:00:46.355Z,12.93
2018-04-16T01:03:19.585Z,12.86
2018-04-16T01:05:52.629Z,12.85
2018-04-16T01:08:25.865Z,12.85
2018-04-16T01:10:58.887Z,12.83
2018-04-16T01:13:32.168Z,12.84
2018-04-16T01:16:05.248Z,12.79
2018-04-16T01:18:38.497Z,12.76
2018-04-16T01:21:11.681Z,12.68
2018-04-16T01:23:44.929Z,12.68
2018-04-16T01:26:18.040Z,12.69
2018-04-16T01:28:51.198Z,12.59
2018-04-16T01:31:24.265Z,12.62
2018-04-16T01:33:57.532Z,12.55
2018-04-16T01:36:30.732Z,12.54
2018-04-16T01:39:03.909Z,12.58
2018-04-16T01:41:37.086Z,12.56
2018-04-16T01:44:10.191Z,12.56
2018-04-16T01:46:43.388Z,12.55
2018-04-16T01:49:16.676Z,12.52
2018-04-16T01:51:49.878Z,12.51
2018-04-16T01:54:23.037Z,12.48
2018-04-16T01:56:56.200Z,12.46
2018-04-16T01:59:29.455Z,12.39
2018-04-16T02:02:02.693Z,12.36
2018-04-16T02:04:35.759Z,12.30
2018-04-16T02:07:08.916Z,12.25
2018-04-16T02:09:42.149Z,12.26
2018-04-16T02:12:15.147Z,12.18
2018-04-16T02:14:48.285Z,12.12
2018-04-16T02:17:21.380Z,12.07
2018-04-16T02:19:54.545Z,12.02
2018-04-16T02:22:27.701Z,12.05
2018-04-16T02:25:00.913Z,12.10
2018-04-16T02:27:34.159Z,12.15
2018-04-16T02:30:07.335Z,12.21
2018-04-16T02:32:40.499Z,12.26
2018-04-16T02:35:13.706Z,12.31
2018-04-16T02:37:46.904Z,12.32
2018-04-16T02:40:19.991Z,12.30
2018-04-16T02:42:53.037Z,12.31
2018-04-16T02:45:26.111Z,12.18
2018-04-16T02:47:59.156Z,12.15
2018-04-16T02:50:32.269Z,12.17
2018-04-16T02:53:05.357Z,12.21
2018-04-16T02:55:38.578Z,12.28
2018-04-16T03:01:18.675Z,12.33
2018-04-16T03:03:51.845Z,12.36
2018-04-16T03:06:25.048Z,12.39
2018-04-16T03:08:58.135Z,12.40
2018-04-16T03:11:31.213Z,12.41
2018-04-16T03:14:04.379Z,12.43
2018-04-16T03:16:37.553Z,12.44
2018-04-16T03:19:10.653Z,12.36
2018-04-16T03:21:43.749Z,12.38
2018-04-16T03:24:16.948Z,12.44
2018-04-16T03:26:50.055Z,12.48
2018-04-16T03:29:23.304Z,12.53
2018-04-16T03:35:03.550Z,12.58
2018-04-16T03:37:36.679Z,12.61
2018-04-16T03:40:09.874Z,12.60
2018-04-16T03:42:43.032Z,12.53
2018-04-16T03:45:16.256Z,12.54
2018-04-16T03:47:49.464Z,12.53
2018-04-16T03:50:22.426Z,12.54
2018-04-16T03:52:55.651Z,12.60
2018-04-16T03:55:23.597Z,12.57
2018-04-16T03:57:51.089Z,12.55
2018-04-16T04:00:18.603Z,12.53
2018-04-16T04:02:46.063Z,12.64
2018-04-16T04:05:13.583Z,12.69
2018-04-16T04:07:41.053Z,12.73
2018-04-16T04:10:08.556Z,12.73
2018-04-16T04:12:36.138Z,12.71
2018-04-16T04:15:03.595Z,12.72
2018-04-16T04:17:31.113Z,12.79
2018-04-16T04:19:58.608Z,12.82
2018-04-16T04:22:38.028Z,12.81
2018-04-16T04:25:17.371Z,12.82
2018-04-16T04:27:56.697Z,12.82
2018-04-16T04:30:36.012Z,12.82
2018-04-16T04:33:03.491Z,12.82
2018-04-16T04:35:31.010Z,12.82
2018-04-16T04:37:58.609Z,12.84
2018-04-16T04:40:26.100Z,12.86
2018-04-16T04:42:53.609Z,12.84
2018-04-16T04:45:21.195Z,12.86
2018-04-16T04:47:48.666Z,12.87
2018-04-16T04:50:16.123Z,12.86
2018-04-16T04:52:43.651Z,12.80
2018-04-16T04:55:11.163Z,12.72
2018-04-16T04:57:38.656Z,12.61
2018-04-16T05:00:06.161Z,12.65
2018-04-16T05:02:33.615Z,12.70
2018-04-16T05:05:01.169Z,12.76
2018-04-16T05:07:28.676Z,12.79
2018-04-16T05:09:56.187Z,12.82
2018-04-16T05:12:23.656Z,12.83
2018-04-16T05:14:51.152Z,12.82
2018-04-16T05:17:18.636Z,12.76
2018-04-16T05:19:46.100Z,12.67
2018-04-16T05:22:13.635Z,12.64
2018-04-16T05:24:41.166Z,12.62
2018-04-16T05:27:08.627Z,12.59
2018-04-16T05:29:36.084Z,12.58
2018-04-16T05:32:03.562Z,12.63
2018-04-16T05:34:31.079Z,12.54
2018-04-16T05:36:58.531Z,12.49
2018-04-16T05:39:26.019Z,12.45
2018-04-16T05:41:53.509Z,12.40
2018-04-16T05:44:21.111Z,12.26
2018-04-16T05:46:48.600Z,12.16
2018-04-16T05:49:16.098Z,12.03
2018-04-16T05:51:43.570Z,12.00
2018-04-16T05:54:11.053Z,12.03
2018-04-16T05:56:38.516Z,11.99
2018-04-16T05:59:06.013Z,12.03
2018-04-16T06:01:33.510Z,12.06
2018-04-16T06:04:00.986Z,12.08
2018-04-16T06:06:28.468Z,12.17
2018-04-16T06:08:55.927Z,12.24
2018-04-16T06:11:23.472Z,12.29
2018-04-16T06:13:51.089Z,12.33
2018-04-16T06:16:18.551Z,12.25
2018-04-16T06:18:46.010Z,12.15
2018-04-16T06:21:13.517Z,12.05
2018-04-16T06:23:41.017Z,12.05
2018-04-16T06:26:08.513Z,11.97
2018-04-16T06:28:36.004Z,11.97
2018-04-16T06:31:03.503Z,11.90
2018-04-16T06:33:31.053Z,11.86
2018-04-16T06:35:58.507Z,11.78
2018-04-16T06:38:26.009Z,11.62
2018-04-16T06:40:53.499Z,11.46
2018-04-16T06:43:21.079Z,11.40
2018-04-16T06:45:48.537Z,11.51
2018-04-16T06:48:16.084Z,11.53
2018-04-16T06:50:43.633Z,11.47
2018-04-16T06:53:11.118Z,11.44
2018-04-16T06:55:38.560Z,11.31
2018-04-16T06:58:06.132Z,11.33
2018-04-16T07:00:33.613Z,11.27
2018-04-16T07:03:01.115Z,11.13
2018-04-16T07:05:28.660Z,11.09
2018-04-16T07:07:56.141Z,11.12
2018-04-16T07:10:23.647Z,11.11
2018-04-16T07:12:51.202Z,11.05
2018-04-16T07:15:18.697Z,11.14
2018-04-16T07:17:46.229Z,11.23
2018-04-16T07:20:13.783Z,11.20
2018-04-16T07:22:41.321Z,11.32
2018-04-16T07:25:08.779Z,11.44
2018-04-16T07:27:36.308Z,11.50
2018-04-16T07:30:03.764Z,11.57
2018-04-16T07:32:31.220Z,11.58
2018-04-16T07:34:58.736Z,11.63
2018-04-16T07:37:26.208Z,11.68
2018-04-16T07:39:53.682Z,11.72
2018-04-16T07:42:21.173Z,11.79
2018-04-16T07:44:48.740Z,11.85
2018-04-16T07:47:16.237Z,11.90
2018-04-16T07:49:43.766Z,11.89
2018-04-16T07:52:11.273Z,11.93
2018-04-16T07:54:38.780Z,11.87
2018-04-16T07:57:06.351Z,11.90
2018-04-16T07:59:33.820Z,11.92
2018-04-16T08:02:01.303Z,11.86
2018-04-16T08:04:28.758Z,11.86
2018-04-16T08:06:56.219Z,11.89
2018-04-16T08:09:23.724Z,11.98
2018-04-16T08:11:51.204Z,12.03
2018-04-16T08:14:18.701Z,12.04
2018-04-16T08:16:46.199Z,12.07
2018-04-16T08:19:13.693Z,11.91
2018-04-16T08:21:41.160Z,11.94
2018-04-16T08:24:08.732Z,11.97
2018-04-16T08:26:36.233Z,12.03
2018-04-16T08:29:03.701Z,12.05
2018-04-16T08:31:31.200Z,12.07
2018-04-16T08:33:58.659Z,12.10
2018-04-16T08:36:26.135Z,12.21
2018-04-16T08:38:53.603Z,12.23
2018-04-16T08:41:21.086Z,12.31
2018-04-16T08:43:48.657Z,12.40
2018-04-16T08:46:16.179Z,12.40
2018-04-16T08:48:43.667Z,12.52
2018-04-16T08:51:11.138Z,12.55
2018-04-16T08:53:38.634Z,12.61
2018-04-16T08:56:06.162Z,12.60
2018-04-16T08:58:33.656Z,12.68
2018-04-16T09:01:01.166Z,12.71
2018-04-16T09:03:28.658Z,12.81
2018-04-16T09:05:56.122Z,12.93
2018-04-16T09:08:23.635Z,13.07
2018-04-16T09:10:51.109Z,13.09
2018-04-16T09:13:18.555Z,13.30
2018-04-16T09:15:46.035Z,13.19
2018-04-16T09:18:13.500Z,13.19
2018-04-16T09:20:40.963Z,13.04
2018-04-16T09:23:08.450Z,13.07
2018-04-16T09:25:35.938Z,13.20
2018-04-16T09:28:03.489Z,13.37
2018-04-16T09:30:30.972Z,13.46
2018-04-16T09:32:58.499Z,13.61
2018-04-16T09:35:25.943Z,13.67
2018-04-16T09:37:53.450Z,13.76
2018-04-16T09:40:20.937Z,13.72
2018-04-16T09:42:48.396Z,13.77
2018-04-16T09:45:15.953Z,13.81
2018-04-16T09:47:43.414Z,14.00
2018-04-16T09:50:10.880Z,14.00
2018-04-16T09:52:38.466Z,14.01
2018-04-16T09:55:05.965Z,13.94
2018-04-16T09:57:33.451Z,13.92
2018-04-16T10:00:00.985Z,13.96
2018-04-16T10:02:28.502Z,13.92
2018-04-16T10:04:55.954Z,13.87
2018-04-16T10:07:23.412Z,13.91
2018-04-16T10:09:50.925Z,13.85
2018-04-16T10:12:18.454Z,13.87
2018-04-16T10:14:45.934Z,13.97
2018-04-16T10:17:13.424Z,14.02
2018-04-16T10:19:40.917Z,14.12
2018-04-16T10:22:08.431Z,14.19
2018-04-16T10:24:35.896Z,14.26
2018-04-16T10:27:03.394Z,14.22
2018-04-16T10:29:30.880Z,14.28
2018-04-16T10:31:58.342Z,14.36
2018-04-16T10:34:25.841Z,14.48
2018-04-16T10:36:53.337Z,14.59
2018-04-16T10:39:20.840Z,14.79
2018-04-16T10:41:48.292Z,14.88
2018-04-16T10:44:15.861Z,14.97
2018-04-16T10:46:43.357Z,15.18
2018-04-16T10:49:10.861Z,15.56
2018-04-16T10:51:38.484Z,15.84
2018-04-16T10:54:05.965Z,15.94
2018-04-16T10:56:33.494Z,15.96
2018-04-16T10:59:00.969Z,16.23
2018-04-16T11:01:28.461Z,16.35
2018-04-16T11:03:55.957Z,16.42
2018-04-16T11:06:23.484Z,16.69
2018-04-16T11:08:50.978Z,16.86
2018-04-16T11:11:18.456Z,16.77
2018-04-16T11:13:45.951Z,16.63
2018-04-16T11:16:13.441Z,16.79
2018-04-16T11:18:40.944Z,16.88
2018-04-16T11:21:08.458Z,17.07
2018-04-16T11:23:35.950Z,17.02
2018-04-16T11:26:03.487Z,16.93
2018-04-16T11:28:30.986Z,16.80
2018-04-16T11:30:58.469Z,16.75
2018-04-16T11:33:26.137Z,16.89
2018-04-16T11:35:53.600Z,17.02
2018-04-16T11:38:21.066Z,17.18
2018-04-16T11:40:48.539Z,17.22
2018-04-16T11:43:16.055Z,17.31
2018-04-16T11:45:43.622Z,17.59
2018-04-16T11:48:11.088Z,17.60
2018-04-16T11:50:38.639Z,17.72
2018-04-16T11:53:06.120Z,17.82
2018-04-16T11:55:33.661Z,17.85
2018-04-16T11:58:01.165Z,17.92
2018-04-16T12:00:28.676Z,18.12
2018-04-16T12:02:56.184Z,18.17
2018-04-16T12:05:23.689Z,18.08
2018-04-16T12:07:51.168Z,18.01
2018-04-16T12:10:18.632Z,18.13
2018-04-16T12:12:46.114Z,18.33
2018-04-16T12:15:13.624Z,18.52
2018-04-16T12:17:41.119Z,18.55
2018-04-16T12:20:08.650Z,18.38
2018-04-16T12:22:36.120Z,18.48
2018-04-16T12:25:03.580Z,18.52
2018-04-16T12:27:31.081Z,18.60
2018-04-16T12:29:58.546Z,18.54
2018-04-16T12:32:26.064Z,18.48
2018-04-16T12:34:53.573Z,18.26
2018-04-16T12:37:21.080Z,18.23
2018-04-16T12:39:48.550Z,18.23
2018-04-16T12:42:16.064Z,18.24
2018-04-16T12:44:43.524Z,18.30
2018-04-16T12:47:10.992Z,18.20
2018-04-16T12:49:38.552Z,18.16
2018-04-16T12:52:06.019Z,18.13
2018-04-16T12:54:33.468Z,18.26
2018-04-16T12:57:01.055Z,18.19
2018-04-16T12:59:28.539Z,18.26
2018-04-16T13:02:12.841Z,18.10
2018-04-16T13:04:40.392Z,18.11
2018-04-16T13:07:07.863Z,18.15
2018-04-16T13:09:35.345Z,18.21
2018-04-16T13:12:02.846Z,18.36
2018-04-16T13:14:30.312Z,18.39
2018-04-16T13:16:57.797Z,18.29
2018-04-16T13:19:25.280Z,18.16
2018-04-16T13:21:52.757Z,18.00
2018-04-16T13:24:20.361Z,17.93
2018-04-16T13:26:47.870Z,17.93
2018-04-16T13:29:15.335Z,17.85
2018-04-16T13:31:42.829Z,17.89
2018-04-16T13:34:10.283Z,17.91
2018-04-16T13:36:37.751Z,17.69
2018-04-16T13:39:05.982Z,17.63
2018-04-16T13:41:33.498Z,17.68
2018-04-16T13:44:01.072Z,17.75
2018-04-16T13:46:28.567Z,17.56
2018-04-16T13:48:56.064Z,17.52
2018-04-16T13:51:23.648Z,17.34
2018-04-16T13:53:51.161Z,17.17
2018-04-16T13:56:18.625Z,17.14
2018-04-16T13:58:46.084Z,17.01
2018-04-16T14:01:13.567Z,16.80
2018-04-16T14:03:41.076Z,16.78
2018-04-16T14:06:08.550Z,16.73
2018-04-16T14:08:36.053Z,16.55
2018-04-16T14:11:03.542Z,16.38
2018-04-16T14:13:31.008Z,16.22
2018-04-16T14:15:58.484Z,16.23
2018-04-16T14:18:25.991Z,16.24
2018-04-16T14:20:53.473Z,16.22
2018-04-16T14:23:20.931Z,16.24
2018-04-16T14:25:48.447Z,16.27
2018-04-16T14:28:15.944Z,16.25
2018-04-16T14:30:43.497Z,16.09
2018-04-16T14:33:11.055Z,15.97
2018-04-16T14:35:38.545Z,15.83
2018-04-16T14:38:06.159Z,15.65
2018-04-16T14:40:33.671Z,15.50
2018-04-16T14:43:01.199Z,15.35
2018-04-16T14:45:28.664Z,15.26
2018-04-16T14:47:56.172Z,15.14
2018-04-16T14:50:23.676Z,15.04
2018-04-16T14:52:51.152Z,14.92
2018-04-16T14:55:18.615Z,14.93
2018-04-16T14:57:46.152Z,14.93
2018-04-16T15:00:13.655Z,14.88
2018-04-16T15:02:41.142Z,14.81
2018-04-16T15:05:08.714Z,14.75
2018-04-16T15:07:36.173Z,14.76
2018-04-16T15:10:03.631Z,14.63
2018-04-16T15:12:31.167Z,14.57
2018-04-16T15:14:58.759Z,14.54
2018-04-16T15:17:26.250Z,14.58
2018-04-16T15:19:53.772Z,14.52
2018-04-16T15:22:21.283Z,14.45
2018-04-16T15:24:48.737Z,14.33
2018-04-16T15:27:16.224Z,14.32
2018-04-16T15:29:43.736Z,14.36
2018-04-16T15:32:11.247Z,14.42
2018-04-16T15:34:38.756Z,14.45
2018-04-16T15:37:06.259Z,14.45
2018-04-16T15:39:33.796Z,14.43
2018-04-16T15:42:01.226Z,14.48
2018-04-16T15:44:28.703Z,14.43
2018-04-16T15:46:56.151Z,14.37
2018-04-16T15:49:23.608Z,14.35
2018-04-16T15:51:51.108Z,14.32
2018-04-16T15:54:18.598Z,14.29
2018-04-16T15:56:46.072Z,14.27
2018-04-16T15:59:13.564Z,14.30
2018-04-16T16:01:41.019Z,14.31
2018-04-16T16:04:08.475Z,14.28
2018-04-16T16:06:36.014Z,14.30
2018-04-16T16:09:03.479Z,14.34
2018-04-16T16:11:30.996Z,14.40
2018-04-16T16:13:58.490Z,14.48
2018-04-16T16:16:26.005Z,14.52
2018-04-16T16:18:53.519Z,14.55
2018-04-16T16:21:21.021Z,14.56
2018-04-16T16:23:48.486Z,14.57
2018-04-16T16:26:16.030Z,14.59
2018-04-16T16:28:43.634Z,14.55
2018-04-16T16:31:11.124Z,14.50
2018-04-16T16:33:38.684Z,14.45
2018-04-16T16:36:06.225Z,14.43
2018-04-16T16:38:33.684Z,14.42
2018-04-16T16:41:01.133Z,14.36
2018-04-16T16:43:28.650Z,14.32
2018-04-16T16:45:56.220Z,14.27
2018-04-16T16:48:23.721Z,14.27
2018-04-16T16:50:51.238Z,14.28
2018-04-16T16:53:18.711Z,14.26
2018-04-16T16:55:46.177Z,14.25
2018-04-16T16:58:13.651Z,14.24
2018-04-16T17:00:41.134Z,14.25
2018-04-16T17:03:08.599Z,14.32
2018-04-16T17:05:36.141Z,14.32
2018-04-16T17:08:03.683Z,14.27
2018-04-16T17:10:31.198Z,14.25
2018-04-16T17:12:58.710Z,14.21
2018-04-16T17:15:26.165Z,14.17
2018-04-16T17:17:53.629Z,14.13
2018-04-16T17:20:21.216Z,14.11
2018-04-16T17:22:48.711Z,14.13
2018-04-16T17:25:16.217Z,14.11
2018-04-16T17:27:43.725Z,14.12
2018-04-16T17:30:11.214Z,14.12
2018-04-16T17:32:38.683Z,14.14
2018-04-16T17:35:06.185Z,14.16
2018-04-16T17:37:33.694Z,14.17
2018-04-16T17:40:01.356Z,14.12
2018-04-16T17:42:28.811Z,14.14
2018-04-16T17:44:56.290Z,14.12
2018-04-16T17:47:23.801Z,14.11
2018-04-16T17:49:51.269Z,14.12
2018-04-16T17:52:18.760Z,14.10
2018-04-16T17:54:46.285Z,14.09
2018-04-16T17:57:13.789Z,14.09
2018-04-16T17:59:41.335Z,14.09
2018-04-16T18:02:08.863Z,14.09
2018-04-16T18:04:36.402Z,14.08
2018-04-16T18:07:03.902Z,14.08
2018-04-16T18:09:31.414Z,14.07
2018-04-16T18:11:58.907Z,14.05
2018-04-16T18:14:26.397Z,14.04
2018-04-16T18:16:53.900Z,14.04
2018-04-16T18:19:21.379Z,14.03
2018-04-16T18:21:48.914Z,14.03
2018-04-16T18:24:16.410Z,14.02
2018-04-16T18:26:43.901Z,14.02
2018-04-16T18:29:11.428Z,14.01
2018-04-16T18:31:38.911Z,14.02
2018-04-16T18:34:06.402Z,14.02
2018-04-16T18:36:33.911Z,14.02
2018-04-16T18:39:01.435Z,14.02
2018-04-16T18:41:29.012Z,14.02
2018-04-16T18:43:56.492Z,14.03
2018-04-16T18:46:24.085Z,14.03
2018-04-16T18:48:51.588Z,14.04
2018-04-16T18:51:19.084Z,14.04
2018-04-16T18:53:46.582Z,14.02
2018-04-16T18:56:14.095Z,14.03
2018-04-16T18:58:41.579Z,14.03
2018-04-16T19:01:09.114Z,14.04
2018-04-16T19:03:36.593Z,14.04
2018-04-16T19:06:04.161Z,14.05
2018-04-16T19:08:31.695Z,14.02
2018-04-16T19:10:59.362Z,14.02
2018-04-16T19:13:26.831Z,14.03
2018-04-16T19:15:54.383Z,14.03
2018-04-16T19:18:21.845Z,14.04
2018-04-16T19:20:55.091Z,14.04
2018-04-16T19:23:22.555Z,14.07
2018-04-16T19:25:50.040Z,14.07
2018-04-16T19:28:17.499Z,14.04
2018-04-16T19:30:44.960Z,14.03
2018-04-16T19:33:18.093Z,14.02
2018-04-16T19:35:45.566Z,13.99
2018-04-16T19:38:13.024Z,13.94
2018-04-16T19:40:40.601Z,13.91
2018-04-16T19:43:08.094Z,13.89
2018-04-16T19:45:35.523Z,13.87
2018-04-16T19:48:02.997Z,13.85
2018-04-16T19:50:30.477Z,13.84
2018-04-16T19:52:58.012Z,13.81
2018-04-16T19:55:25.515Z,13.77
2018-04-16T19:57:58.651Z,13.74
2018-04-16T20:00:26.116Z,13.73
2018-04-16T20:02:59.225Z,13.71
2018-04-16T20:05:26.704Z,13.68
2018-04-16T20:07:54.159Z,13.68
2018-04-16T20:10:21.722Z,13.70
2018-04-16T20:12:49.179Z,13.67
2018-04-16T20:15:16.686Z,13.66
2018-04-16T20:17:44.220Z,13.63
2018-04-16T20:20:11.719Z,13.60
2018-04-16T20:22:39.219Z,13.59
2018-04-16T20:25:06.777Z,13.56
2018-04-16T20:27:34.277Z,13.55
2018-04-16T20:30:01.798Z,13.52
2018-04-16T20:32:29.313Z,13.49
2018-04-16T20:34:56.813Z,13.47
2018-04-16T20:37:24.352Z,13.48
2018-04-16T20:39:51.848Z,13.48
2018-04-16T20:42:19.314Z,13.46
2018-04-16T20:44:46.805Z,13.45
2018-04-16T20:47:14.321Z,13.41
2018-04-16T20:49:41.863Z,13.36
2018-04-16T20:52:09.350Z,13.33
2018-04-16T20:54:36.913Z,13.29
2018-04-16T20:57:04.432Z,13.24
2018-04-16T20:59:31.969Z,13.22
2018-04-16T21:01:59.479Z,13.20
2018-04-16T21:04:26.935Z,13.16
2018-04-16T21:06:54.396Z,13.14
2018-04-16T21:09:21.925Z,13.12
2018-04-16T21:11:49.406Z,13.06
2018-04-16T21:14:16.895Z,13.04
2018-04-16T21:16:44.390Z,13.01
2018-04-16T21:19:11.881Z,12.95
2018-04-16T21:21:39.367Z,12.91
2018-04-16T21:24:06.844Z,12.89
2018-04-16T21:26:34.340Z,12.83
2018-04-16T21:29:01.871Z,12.81
2018-04-16T21:31:29.359Z,12.76
2018-04-16T21:33:56.925Z,12.70
2018-04-16T21:36:24.403Z,12.64
2018-04-16T21:38:51.895Z,12.58
2018-04-16T21:41:19.483Z,12.53
2018-04-16T21:43:46.982Z,12.50
2018-04-16T21:46:15.118Z,12.46
2018-04-16T21:48:42.632Z,12.41
2018-04-16T21:51:10.147Z,12.36
2018-04-16T21:53:37.647Z,12.34
2018-04-16T21:56:05.165Z,12.34
2018-04-16T21:58:32.729Z,12.32
2018-04-16T22:01:00.259Z,12.28
2018-04-16T22:03:27.798Z,12.26
2018-04-16T22:05:55.266Z,12.21
2018-04-16T22:08:22.724Z,12.21
2018-04-16T22:10:50.243Z,12.20
2018-04-16T22:13:17.715Z,12.19
2018-04-16T22:15:45.221Z,12.19
2018-04-16T22:18:12.684Z,12.17
2018-04-16T22:20:40.152Z,12.15
2018-04-16T22:23:07.627Z,12.16
2018-04-16T22:25:35.095Z,12.18
2018-04-16T22:28:02.605Z,12.17
2018-04-16T22:30:30.083Z,12.11
2018-04-16T22:32:57.574Z,12.09
2018-04-16T22:35:25.031Z,12.02
2018-04-16T22:37:52.563Z,12.00
2018-04-16T22:40:20.035Z,12.00
2018-04-16T22:42:47.492Z,11.98
2018-04-16T22:45:14.968Z,11.97
2018-04-16T22:47:42.492Z,11.96
2018-04-16T22:50:09.964Z,11.91
2018-04-16T22:52:37.469Z,11.89
2018-04-16T22:55:04.992Z,11.88
2018-04-16T22:57:32.451Z,11.91
2018-04-16T22:59:59.914Z,11.94
2018-04-16T23:02:27.392Z,11.93
2018-04-16T23:04:54.923Z,11.93
2018-04-16T23:07:22.394Z,11.94
2018-04-16T23:09:49.904Z,11.90
2018-04-16T23:12:17.380Z,11.89
2018-04-16T23:14:44.913Z,11.87
2018-04-16T23:17:12.409Z,11.86
2018-04-16T23:19:39.902Z,11.85
2018-04-16T23:22:07.457Z,11.83
2018-04-16T23:24:34.919Z,11.81
2018-04-16T23:27:02.423Z,11.81
2018-04-16T23:29:29.932Z,11.78
2018-04-16T23:31:57.434Z,11.78
2018-04-16T23:34:24.953Z,11.76
2018-04-16T23:36:52.447Z,11.75
2018-04-16T23:39:19.905Z,11.78
2018-04-16T23:41:47.431Z,11.80
2018-04-16T23:44:14.892Z,11.81
2018-04-16T23:46:42.383Z,11.81
2018-04-16T23:49:09.911Z,11.83
2018-04-16T23:51:37.375Z,11.81
2018-04-16T23:54:04.861Z,11.79
2018-04-16T23:56:32.500Z,11.76
2018-04-16T23:59:00.114Z,11.78
